createdAt,value
2023-02-27T00:02:25.963Z,43.74
2023-02-27T00:04:53.861Z,43.94
2023-02-27T00:07:25.264Z,43.85
2023-02-27T00:09:52.452Z,44.11
2023-02-27T00:12:18.512Z,44.14
2023-02-27T00:14:44.626Z,43.96
2023-02-27T00:17:10.704Z,44.03
2023-02-27T00:19:36.809Z,44.00
2023-02-27T00:22:02.871Z,44.03
2023-02-27T00:24:29.507Z,44.08
2023-02-27T00:26:55.583Z,44.04
2023-02-27T00:29:21.655Z,43.88
2023-02-27T00:31:51.773Z,43.89
2023-02-27T00:34:18.044Z,43.73
2023-02-27T00:36:44.118Z,43.92
2023-02-27T00:39:10.262Z,43.83
2023-02-27T00:41:36.519Z,43.68
2023-02-27T00:44:03.978Z,43.67
2023-02-27T00:46:30.149Z,43.74
2023-02-27T00:48:56.251Z,43.83
2023-02-27T00:51:23.624Z,43.79
2023-02-27T00:53:49.805Z,43.84
2023-02-27T00:56:15.877Z,43.88
2023-02-27T00:58:41.941Z,43.95
2023-02-27T01:01:08.236Z,44.01
2023-02-27T01:03:34.314Z,44.13
2023-02-27T01:06:00.588Z,44.22
2023-02-27T01:08:26.687Z,44.24
2023-02-27T01:10:54.723Z,44.40
2023-02-27T01:13:21.245Z,44.48
2023-02-27T01:15:47.385Z,44.61
2023-02-27T01:18:13.540Z,44.68
2023-02-27T01:20:39.776Z,44.75
2023-02-27T01:23:06.096Z,44.82
2023-02-27T01:25:32.241Z,44.61
2023-02-27T01:27:58.311Z,44.55
2023-02-27T01:30:24.529Z,44.59
2023-02-27T01:32:50.640Z,44.68
2023-02-27T01:35:17.343Z,44.65
2023-02-27T01:37:43.998Z,44.68
2023-02-27T01:40:11.536Z,44.88
2023-02-27T01:42:37.719Z,45.03
2023-02-27T01:45:09.910Z,45.14
2023-02-27T01:47:41.490Z,45.36
2023-02-27T01:50:08.585Z,45.40
2023-02-27T01:52:37.012Z,45.39
2023-02-27T01:55:07.682Z,45.52
2023-02-27T01:57:35.354Z,45.45
2023-02-27T02:00:02.317Z,45.66
2023-02-27T02:02:43.103Z,45.90
2023-02-27T02:05:09.485Z,45.89
2023-02-27T02:07:40.435Z,46.00
2023-02-27T02:10:07.346Z,46.19
2023-02-27T02:12:36.413Z,46.32
2023-02-27T02:15:04.644Z,46.58
2023-02-27T02:17:50.838Z,46.88
2023-02-27T02:21:06.853Z,47.08
2023-02-27T02:23:48.634Z,48.29
2023-02-27T02:26:33.299Z,49.44
2023-02-27T02:29:40.923Z,50.63
2023-02-27T02:32:54.778Z,50.44
2023-02-27T02:35:43.953Z,50.67
2023-02-27T02:38:37.714Z,51.08
2023-02-27T02:41:30.726Z,51.48
2023-02-27T02:44:02.488Z,51.68
2023-02-27T02:46:35.754Z,51.93
2023-02-27T02:49:29.415Z,52.25
2023-02-27T02:52:12.476Z,52.42
2023-02-27T02:54:55.673Z,52.80
2023-02-27T02:57:34.414Z,52.88
2023-02-27T03:00:11.829Z,52.82
2023-02-27T03:02:54.687Z,52.91
2023-02-27T03:05:29.265Z,52.14
2023-02-27T03:08:11.464Z,51.39
2023-02-27T03:10:45.757Z,50.85
2023-02-27T03:13:20.261Z,50.47
2023-02-27T03:16:03.854Z,50.45
2023-02-27T03:18:36.374Z,50.35
2023-02-27T03:21:11.850Z,50.46
2023-02-27T03:23:43.978Z,50.70
2023-02-27T03:26:14.353Z,50.99
2023-02-27T03:28:53.540Z,51.04
2023-02-27T03:31:28.177Z,51.09
2023-02-27T03:34:15.264Z,51.37
2023-02-27T03:36:48.973Z,51.60
2023-02-27T03:39:33.767Z,51.54
2023-02-27T03:42:06.460Z,51.81
2023-02-27T03:45:04.546Z,51.81
2023-02-27T03:47:32.668Z,51.78
2023-02-27T03:49:58.908Z,51.80
2023-02-27T03:52:27.341Z,52.04
2023-02-27T03:54:59.580Z,52.03
2023-02-27T03:57:26.438Z,52.06
2023-02-27T03:59:52.702Z,52.28
2023-02-27T04:02:20.009Z,52.38
2023-02-27T04:04:47.596Z,52.40
2023-02-27T04:08:04.583Z,52.49
2023-02-27T04:10:38.601Z,52.63
2023-02-27T04:13:32.977Z,52.64
2023-02-27T04:16:08.106Z,52.66
2023-02-27T04:19:03.799Z,52.77
2023-02-27T04:21:52.976Z,52.80
2023-02-27T04:24:33.910Z,52.92
2023-02-27T04:27:06.962Z,53.19
2023-02-27T04:30:05.215Z,53.35
2023-02-27T04:32:35.346Z,53.45
2023-02-27T04:35:07.781Z,53.49
2023-02-27T04:37:52.172Z,53.54
2023-02-27T04:40:24.450Z,53.73
2023-02-27T04:42:55.602Z,53.72
2023-02-27T04:45:25.732Z,53.80
2023-02-27T04:47:59.832Z,53.99
2023-02-27T04:50:31.883Z,54.11
2023-02-27T04:53:05.203Z,54.08
2023-02-27T04:55:41.663Z,54.25
2023-02-27T04:58:13.582Z,54.24
2023-02-27T05:00:45.321Z,53.98
2023-02-27T05:03:17.502Z,54.17
2023-02-27T05:05:47.192Z,54.19
2023-02-27T05:08:25.520Z,54.29
2023-02-27T05:11:00.712Z,54.35
2023-02-27T05:13:37.194Z,54.43
2023-02-27T05:16:26.449Z,54.49
2023-02-27T05:18:54.011Z,54.32
2023-02-27T05:21:30.130Z,54.26
2023-02-27T05:24:11.657Z,54.45
2023-02-27T05:26:52.720Z,54.64
2023-02-27T05:29:44.887Z,54.65
2023-02-27T05:32:26.187Z,54.82
2023-02-27T05:35:04.669Z,55.01
2023-02-27T05:37:35.747Z,54.81
2023-02-27T05:40:07.738Z,54.71
2023-02-27T05:42:40.299Z,54.70
2023-02-27T05:45:13.705Z,54.51
2023-02-27T05:47:46.329Z,54.23
2023-02-27T05:50:19.767Z,54.39
2023-02-27T05:52:48.656Z,54.47
2023-02-27T05:55:26.241Z,54.41
2023-02-27T05:58:06.364Z,54.55
2023-02-27T06:01:00.503Z,54.58
2023-02-27T06:03:27.938Z,54.20
2023-02-27T06:05:56.582Z,54.13
2023-02-27T06:08:23.544Z,54.11
2023-02-27T06:10:49.861Z,54.12
2023-02-27T06:13:16.647Z,54.25
2023-02-27T06:15:43.712Z,54.08
2023-02-27T06:18:10.894Z,53.79
2023-02-27T06:20:37.097Z,53.42
2023-02-27T06:23:03.372Z,53.30
2023-02-27T06:25:30.015Z,52.97
2023-02-27T06:27:56.207Z,52.63
2023-02-27T06:30:22.274Z,52.17
2023-02-27T06:32:48.442Z,51.48
2023-02-27T06:35:14.882Z,51.01
2023-02-27T06:37:40.941Z,49.66
2023-02-27T06:40:11.157Z,49.32
2023-02-27T06:42:41.778Z,48.92
2023-02-27T06:45:09.524Z,48.50
2023-02-27T06:47:35.883Z,48.31
2023-02-27T06:50:03.136Z,48.19
2023-02-27T06:52:29.189Z,48.16
2023-02-27T06:54:55.326Z,47.80
2023-02-27T06:57:21.488Z,47.13
2023-02-27T06:59:47.591Z,46.21
2023-02-27T07:02:15.318Z,45.86
2023-02-27T07:04:41.544Z,45.39
2023-02-27T07:07:34.707Z,44.89
2023-02-27T07:09:54.311Z,44.67
2023-02-27T07:12:20.541Z,44.08
2023-02-27T07:14:46.671Z,43.98
2023-02-27T07:17:12.817Z,43.57
2023-02-27T07:19:38.879Z,42.35
2023-02-27T07:22:05.031Z,41.81
2023-02-27T07:24:31.125Z,40.57
2023-02-27T07:26:57.215Z,39.63
2023-02-27T07:29:23.445Z,37.99
2023-02-27T07:31:49.534Z,36.28
2023-02-27T07:34:15.850Z,34.75
2023-02-27T07:36:42.777Z,33.39
2023-02-27T07:39:10.119Z,32.00
2023-02-27T07:41:36.321Z,30.77
2023-02-27T07:44:06.346Z,29.77
2023-02-27T07:46:32.862Z,28.65
2023-02-27T07:48:59.009Z,27.63
2023-02-27T07:51:25.182Z,26.78
2023-02-27T07:53:51.400Z,26.02
2023-02-27T07:56:17.780Z,25.15
2023-02-27T07:58:43.990Z,24.34
2023-02-27T08:01:10.499Z,23.92
2023-02-27T08:03:36.721Z,23.50
2023-02-27T08:06:03.090Z,23.25
2023-02-27T08:08:29.364Z,23.33
2023-02-27T08:10:55.668Z,23.19
2023-02-27T08:13:35.981Z,23.85
2023-02-27T08:16:08.324Z,24.43
2023-02-27T08:18:35.096Z,24.67
2023-02-27T08:21:01.343Z,24.96
2023-02-27T08:23:27.449Z,25.28
2023-02-27T08:25:53.667Z,25.49
2023-02-27T08:28:19.698Z,25.73
2023-02-27T08:30:45.874Z,26.23
2023-02-27T08:33:12.239Z,26.60
2023-02-27T08:35:38.337Z,26.90
2023-02-27T08:38:05.002Z,27.33
2023-02-27T08:40:31.094Z,27.80
2023-02-27T08:42:57.205Z,28.24
2023-02-27T08:45:23.426Z,28.26
2023-02-27T08:47:49.595Z,28.29
2023-02-27T08:50:15.903Z,27.71
2023-02-27T08:52:42.002Z,28.29
2023-02-27T08:55:08.971Z,28.89
2023-02-27T08:57:35.204Z,28.99
2023-02-27T09:00:01.673Z,29.18
2023-02-27T09:02:27.800Z,29.64
2023-02-27T09:04:53.998Z,29.89
2023-02-27T09:07:20.220Z,30.10
2023-02-27T09:09:47.631Z,30.07
2023-02-27T09:12:14.995Z,30.18
2023-02-27T09:14:41.375Z,29.59
2023-02-27T09:17:07.677Z,30.16
2023-02-27T09:19:33.856Z,30.96
2023-02-27T09:22:00.037Z,31.00
2023-02-27T09:24:26.256Z,31.30
2023-02-27T09:26:52.646Z,31.55
2023-02-27T09:29:19.261Z,31.91
2023-02-27T09:31:45.662Z,32.11
2023-02-27T09:34:11.893Z,32.29
2023-02-27T09:36:37.986Z,32.22
2023-02-27T09:39:04.191Z,32.43
2023-02-27T09:41:39.958Z,32.90
2023-02-27T09:44:18.682Z,33.10
2023-02-27T09:46:44.772Z,33.29
2023-02-27T09:49:17.950Z,33.51
2023-02-27T09:51:44.167Z,33.90
2023-02-27T09:54:11.665Z,34.53
2023-02-27T09:56:56.600Z,34.85
2023-02-27T09:59:33.611Z,35.27
2023-02-27T10:02:16.657Z,35.75
2023-02-27T10:05:19.382Z,35.94
2023-02-27T10:08:23.780Z,35.97
2023-02-27T10:11:03.023Z,35.99
2023-02-27T10:14:21.296Z,36.47
2023-02-27T10:16:50.076Z,36.56
2023-02-27T10:19:31.584Z,36.92
2023-02-27T10:21:59.601Z,36.87
2023-02-27T10:24:30.968Z,37.00
2023-02-27T10:27:00.213Z,36.93
2023-02-27T10:29:41.650Z,37.13
2023-02-27T10:32:22.435Z,37.44
2023-02-27T10:34:54.250Z,37.37
2023-02-27T10:37:23.782Z,37.24
2023-02-27T10:40:05.937Z,37.25
2023-02-27T10:42:34.985Z,37.59
2023-02-27T10:45:02.896Z,37.85
2023-02-27T10:47:29.443Z,37.89
2023-02-27T10:49:55.715Z,37.94
2023-02-27T10:52:21.933Z,38.14
2023-02-27T10:54:48.196Z,38.21
2023-02-27T10:57:40.139Z,38.25
2023-02-27T11:00:23.586Z,38.45
2023-02-27T11:02:51.676Z,38.54
2023-02-27T11:05:21.597Z,38.63
2023-02-27T11:07:48.135Z,38.60
2023-02-27T11:10:14.483Z,38.84
2023-02-27T11:12:43.119Z,38.96
2023-02-27T11:15:14.806Z,39.01
2023-02-27T11:17:42.558Z,38.93
2023-02-27T11:20:28.664Z,39.11
2023-02-27T11:23:16.343Z,39.57
2023-02-27T11:25:43.177Z,39.76
2023-02-27T11:28:21.705Z,40.11
2023-02-27T11:31:02.715Z,40.40
2023-02-27T11:33:35.397Z,40.44
2023-02-27T11:36:02.352Z,40.18
2023-02-27T11:38:30.673Z,40.11
2023-02-27T11:41:01.892Z,40.14
2023-02-27T11:43:36.156Z,40.43
2023-02-27T11:46:43.248Z,40.57
2023-02-27T11:48:51.611Z,41.09
2023-02-27T11:51:29.600Z,41.28
2023-02-27T11:54:17.198Z,41.62
2023-02-27T11:56:47.790Z,41.75
2023-02-27T11:59:36.267Z,41.69
2023-02-27T12:02:17.369Z,42.20
2023-02-27T12:04:58.326Z,42.17
2023-02-27T12:07:33.303Z,42.33
2023-02-27T12:10:10.303Z,42.67
2023-02-27T12:12:45.380Z,42.98
2023-02-27T12:15:25.404Z,42.88
2023-02-27T12:17:54.033Z,42.91
2023-02-27T12:20:25.781Z,42.82
2023-02-27T12:22:54.353Z,42.84
2023-02-27T12:25:45.846Z,42.98
2023-02-27T12:28:16.896Z,43.19
2023-02-27T12:31:07.763Z,43.43
2023-02-27T12:33:42.937Z,43.15
2023-02-27T12:36:12.140Z,43.16
2023-02-27T12:38:38.968Z,43.12
2023-02-27T12:41:30.000Z,42.93
2023-02-27T12:44:06.531Z,42.66
2023-02-27T12:46:44.028Z,42.58
2023-02-27T12:49:29.325Z,42.66
2023-02-27T12:52:22.478Z,42.93
2023-02-27T12:55:00.847Z,42.63
2023-02-27T12:57:44.398Z,42.54
2023-02-27T13:00:14.395Z,42.53
2023-02-27T13:02:46.593Z,42.54
2023-02-27T13:05:32.870Z,42.81
2023-02-27T13:08:17.163Z,43.22
2023-02-27T13:10:50.834Z,43.22
2023-02-27T13:13:51.855Z,43.34
2023-02-27T13:16:33.425Z,43.62
2023-02-27T13:19:11.172Z,44.00
2023-02-27T13:21:45.156Z,44.07
2023-02-27T13:24:25.660Z,44.03
2023-02-27T13:27:00.946Z,43.95
2023-02-27T13:29:35.893Z,43.90
2023-02-27T13:32:21.416Z,43.78
2023-02-27T13:34:55.855Z,43.68
2023-02-27T13:37:22.227Z,43.77
2023-02-27T13:39:48.263Z,43.66
2023-02-27T13:42:26.384Z,43.76
2023-02-27T13:44:57.464Z,43.98
2023-02-27T13:47:48.166Z,44.15
2023-02-27T13:50:17.135Z,44.32
2023-02-27T13:52:44.128Z,44.34
2023-02-27T13:55:26.730Z,44.59
2023-02-27T13:57:56.744Z,44.61
2023-02-27T14:00:25.438Z,44.69
2023-02-27T14:03:00.610Z,44.82
2023-02-27T14:05:34.489Z,44.74
2023-02-27T14:08:06.767Z,44.56
2023-02-27T14:10:33.225Z,44.71
2023-02-27T14:13:02.220Z,44.78
2023-02-27T14:15:31.365Z,44.97
2023-02-27T14:18:15.774Z,44.91
2023-02-27T14:20:50.652Z,44.86
2023-02-27T14:23:16.741Z,44.93
2023-02-27T14:26:04.698Z,45.02
2023-02-27T14:28:55.062Z,45.27
2023-02-27T14:31:31.869Z,45.31
2023-02-27T14:34:04.590Z,45.55
2023-02-27T14:36:42.054Z,45.98
2023-02-27T14:39:22.779Z,46.70
2023-02-27T14:42:12.031Z,47.13
2023-02-27T14:44:44.107Z,47.59
2023-02-27T14:47:18.466Z,47.89
2023-02-27T14:49:47.816Z,48.28
2023-02-27T14:52:24.755Z,48.32
2023-02-27T14:54:51.627Z,48.72
2023-02-27T14:57:21.887Z,49.29
2023-02-27T14:59:50.594Z,49.66
2023-02-27T15:02:24.024Z,50.28
2023-02-27T15:05:01.822Z,50.63
2023-02-27T15:07:30.916Z,50.64
2023-02-27T15:09:59.846Z,50.32
2023-02-27T15:12:27.040Z,50.68
2023-02-27T15:14:58.976Z,50.99
2023-02-27T15:17:28.027Z,51.43
2023-02-27T15:19:57.372Z,51.89
2023-02-27T15:22:38.642Z,51.93
2023-02-27T15:25:07.076Z,52.19
2023-02-27T15:27:36.470Z,52.36
2023-02-27T15:30:03.542Z,52.77
2023-02-27T15:32:35.375Z,52.99
2023-02-27T15:35:04.833Z,52.98
2023-02-27T15:37:32.877Z,53.12
2023-02-27T15:40:00.885Z,53.28
2023-02-27T15:42:31.243Z,53.41
2023-02-27T15:44:58.304Z,53.54
2023-02-27T15:47:27.342Z,53.67
2023-02-27T15:49:58.683Z,54.03
2023-02-27T15:52:27.133Z,54.64
2023-02-27T15:55:00.766Z,54.89
2023-02-27T15:57:27.159Z,54.87
2023-02-27T15:59:56.551Z,55.00
2023-02-27T16:02:29.362Z,55.17
2023-02-27T16:04:56.170Z,55.26
2023-02-27T16:07:24.867Z,55.17
2023-02-27T16:09:56.258Z,55.02
2023-02-27T16:12:31.905Z,55.00
2023-02-27T16:15:25.024Z,55.13
2023-02-27T16:17:54.282Z,55.01
2023-02-27T16:20:43.014Z,55.09
2023-02-27T16:23:15.330Z,54.93
2023-02-27T16:25:42.131Z,54.99
2023-02-27T16:28:14.796Z,55.12
2023-02-27T16:30:41.869Z,55.29
2023-02-27T16:33:20.010Z,55.42
2023-02-27T16:35:46.269Z,55.33
2023-02-27T16:38:12.516Z,55.23
2023-02-27T16:40:38.811Z,54.99
2023-02-27T16:43:04.953Z,55.02
2023-02-27T16:45:31.379Z,55.08
2023-02-27T16:47:59.290Z,55.08
2023-02-27T16:50:38.211Z,55.23
2023-02-27T16:53:04.322Z,55.26
2023-02-27T16:55:33.373Z,55.21
2023-02-27T16:57:59.830Z,55.29
2023-02-27T17:00:26.092Z,55.36
2023-02-27T17:02:52.429Z,55.47
2023-02-27T17:05:18.749Z,55.56
2023-02-27T17:07:46.083Z,55.80
2023-02-27T17:10:21.677Z,55.96
2023-02-27T17:12:47.789Z,56.12
2023-02-27T17:15:14.766Z,56.17
2023-02-27T17:17:40.981Z,56.20
2023-02-27T17:20:08.083Z,56.17
2023-02-27T17:22:36.174Z,56.36
2023-02-27T17:25:03.123Z,56.28
2023-02-27T17:27:29.336Z,56.17
2023-02-27T17:29:55.621Z,56.17
2023-02-27T17:32:22.109Z,56.18
2023-02-27T17:34:51.569Z,56.30
2023-02-27T17:37:17.698Z,56.43
2023-02-27T17:39:43.769Z,56.46
2023-02-27T17:42:12.100Z,56.44
2023-02-27T17:44:38.203Z,56.36
2023-02-27T17:47:04.770Z,56.39
2023-02-27T17:49:30.926Z,56.45
2023-02-27T17:51:59.971Z,56.42
2023-02-27T17:54:27.537Z,56.43
2023-02-27T17:56:53.796Z,56.30
2023-02-27T17:59:20.042Z,56.35
2023-02-27T18:01:46.343Z,56.61
2023-02-27T18:04:13.214Z,56.66
2023-02-27T18:06:39.407Z,56.73
2023-02-27T18:09:05.671Z,56.75
2023-02-27T18:11:32.078Z,56.74
2023-02-27T18:13:58.419Z,56.66
2023-02-27T18:16:24.816Z,56.66
2023-02-27T18:18:51.084Z,56.73
2023-02-27T18:21:20.154Z,56.93
2023-02-27T18:23:47.505Z,56.89
2023-02-27T18:26:29.990Z,56.80
2023-02-27T18:29:01.986Z,56.78
2023-02-27T18:31:40.700Z,56.86
2023-02-27T18:34:07.407Z,57.08
2023-02-27T18:36:34.588Z,57.26
2023-02-27T18:39:01.528Z,57.34
2023-02-27T18:41:28.948Z,57.33
2023-02-27T18:43:58.476Z,57.29
2023-02-27T18:46:25.742Z,57.15
2023-02-27T18:48:55.782Z,57.04
2023-02-27T18:51:22.720Z,57.14
2023-02-27T18:53:50.459Z,57.33
2023-02-27T18:56:19.778Z,57.27
2023-02-27T18:58:46.929Z,57.49
2023-02-27T19:01:25.870Z,57.81
2023-02-27T19:03:55.540Z,57.99
2023-02-27T19:06:22.210Z,57.97
2023-02-27T19:08:49.082Z,58.08
2023-02-27T19:11:23.744Z,58.19
2023-02-27T19:13:50.587Z,58.23
2023-02-27T19:16:17.324Z,58.25
2023-02-27T19:18:44.045Z,58.25
2023-02-27T19:21:10.747Z,58.41
2023-02-27T19:23:38.554Z,58.50
2023-02-27T19:26:05.320Z,58.57
2023-02-27T19:28:33.437Z,58.49
2023-02-27T19:31:05.138Z,58.49
2023-02-27T19:33:31.827Z,58.42
2023-02-27T19:35:59.400Z,58.43
2023-02-27T19:38:26.099Z,58.27
2023-02-27T19:40:54.076Z,58.30
2023-02-27T19:43:20.870Z,58.40
2023-02-27T19:45:47.720Z,58.23
2023-02-27T19:48:18.501Z,58.17
2023-02-27T19:50:45.683Z,58.20
2023-02-27T19:53:13.045Z,58.26
2023-02-27T19:56:06.276Z,58.01
2023-02-27T19:58:35.784Z,58.05
2023-02-27T20:01:04.025Z,58.18
2023-02-27T20:03:31.629Z,58.08
2023-02-27T20:05:58.502Z,57.93
2023-02-27T20:08:25.148Z,57.80
2023-02-27T20:11:00.964Z,57.90
2023-02-27T20:13:28.205Z,57.77
2023-02-27T20:16:03.293Z,57.75
2023-02-27T20:18:31.894Z,57.58
2023-02-27T20:21:04.392Z,57.41
2023-02-27T20:23:33.210Z,57.58
2023-02-27T20:26:00.093Z,57.63
2023-02-27T20:28:28.064Z,57.49
2023-02-27T20:30:54.761Z,57.48
2023-02-27T20:33:21.332Z,57.65
2023-02-27T20:35:47.958Z,57.68
2023-02-27T20:38:16.638Z,57.89
2023-02-27T20:40:43.106Z,57.97
2023-02-27T20:43:09.602Z,58.02
2023-02-27T20:45:41.001Z,57.77
2023-02-27T20:48:07.663Z,57.82
2023-02-27T20:50:34.614Z,57.95
2023-02-27T20:53:01.059Z,57.97
2023-02-27T20:55:27.401Z,58.11
2023-02-27T20:57:53.559Z,58.46
2023-02-27T21:00:20.336Z,58.52
2023-02-27T21:02:46.427Z,58.77
2023-02-27T21:05:12.623Z,58.91
2023-02-27T21:07:38.792Z,58.88
2023-02-27T21:10:06.137Z,58.86
2023-02-27T21:12:33.567Z,58.81
2023-02-27T21:14:59.962Z,58.99
2023-02-27T21:17:26.098Z,58.98
2023-02-27T21:19:52.195Z,59.05
2023-02-27T21:22:18.323Z,59.30
2023-02-27T21:24:47.232Z,59.52
2023-02-27T21:27:13.407Z,59.81
2023-02-27T21:29:39.784Z,59.87
2023-02-27T21:32:06.924Z,60.00
2023-02-27T21:34:33.107Z,59.96
2023-02-27T21:37:00.994Z,60.14
2023-02-27T21:39:30.335Z,60.11
2023-02-27T21:41:58.402Z,60.13
2023-02-27T21:44:25.364Z,60.08
2023-02-27T21:46:52.776Z,60.22
2023-02-27T21:49:22.053Z,60.31
2023-02-27T21:51:49.138Z,60.73
2023-02-27T21:54:17.233Z,60.81
2023-02-27T21:56:46.282Z,61.03
2023-02-27T21:59:13.236Z,61.05
2023-02-27T22:01:39.545Z,61.21
2023-02-27T22:04:06.622Z,61.13
2023-02-27T22:06:34.159Z,61.26
2023-02-27T22:09:04.886Z,61.29
2023-02-27T22:11:33.205Z,61.28
2023-02-27T22:13:59.286Z,61.34
2023-02-27T22:16:54.360Z,61.45
2023-02-27T22:19:21.925Z,61.46
2023-02-27T22:21:48.574Z,61.38
2023-02-27T22:24:15.000Z,61.44
2023-02-27T22:26:42.002Z,61.66
2023-02-27T22:29:08.341Z,61.83
2023-02-27T22:31:37.075Z,61.89
2023-02-27T22:34:09.394Z,61.88
2023-02-27T22:36:35.866Z,62.16
2023-02-27T22:39:03.475Z,62.41
2023-02-27T22:41:35.189Z,62.31
2023-02-27T22:44:02.368Z,62.46
2023-02-27T22:46:32.496Z,62.90
2023-02-27T22:49:02.349Z,63.09
2023-02-27T22:51:29.437Z,62.98
2023-02-27T22:53:57.901Z,62.93
2023-02-27T22:56:24.871Z,62.93
2023-02-27T22:58:51.100Z,62.93
2023-02-27T23:01:25.490Z,62.95
2023-02-27T23:03:53.196Z,62.96
2023-02-27T23:06:22.023Z,62.98
2023-02-27T23:08:48.697Z,62.77
2023-02-27T23:11:16.083Z,62.84
2023-02-27T23:13:42.326Z,62.80
2023-02-27T23:16:12.889Z,62.87
2023-02-27T23:18:45.455Z,63.08
2023-02-27T23:21:13.050Z,62.96
2023-02-27T23:23:39.761Z,63.22
2023-02-27T23:26:06.009Z,63.18
2023-02-27T23:28:34.222Z,63.41
2023-02-27T23:31:01.332Z,63.35
2023-02-27T23:33:28.032Z,63.41
2023-02-27T23:35:55.079Z,63.53
2023-02-27T23:38:21.352Z,63.76
2023-02-27T23:40:47.428Z,63.72
2023-02-27T23:43:32.130Z,63.68
2023-02-27T23:45:59.718Z,63.71
2023-02-27T23:48:25.898Z,63.62
2023-02-27T23:50:52.392Z,63.54
2023-02-27T23:53:18.664Z,63.55
2023-02-27T23:55:45.125Z,63.39
2023-02-27T23:58:11.254Z,63.30
